createdAt,value
2022-12-01T00:00:07.814Z,71.64
2022-12-01T00:01:11.572Z,71.16
2022-12-01T00:02:13.813Z,70.87
2022-12-01T00:03:17.169Z,70.53
2022-12-01T00:04:20.396Z,70.74
2022-12-01T00:05:22.672Z,69.96
2022-12-01T00:06:25.799Z,70.68
2022-12-01T00:07:28.040Z,69.91
2022-12-01T00:08:32.367Z,70.13
2022-12-01T00:09:53.235Z,69.44
2022-12-01T00:10:55.967Z,69.50
2022-12-01T00:11:58.092Z,69.66
2022-12-01T00:13:03.392Z,69.96
2022-12-01T00:14:07.526Z,71.22
2022-12-01T00:15:11.622Z,71.13
2022-12-01T00:16:16.101Z,70.93
2022-12-01T00:17:19.279Z,70.47
2022-12-01T00:18:21.433Z,70.57
2022-12-01T00:19:26.414Z,70.49
2022-12-01T00:20:29.334Z,70.45
2022-12-01T00:21:32.506Z,70.03
2022-12-01T00:22:34.667Z,70.51
2022-12-01T00:23:37.802Z,70.29
2022-12-01T00:24:39.911Z,69.91
2022-12-01T00:25:43.092Z,69.54
2022-12-01T00:26:45.222Z,69.72
2022-12-01T00:27:49.817Z,69.37
2022-12-01T00:28:52.732Z,69.79
2022-12-01T00:29:57.388Z,69.78
2022-12-01T00:31:00.280Z,69.39
2022-12-01T00:32:03.730Z,68.92
2022-12-01T00:33:05.909Z,69.06
2022-12-01T00:34:14.456Z,69.09
2022-12-01T00:35:17.645Z,69.70
2022-12-01T00:36:21.144Z,69.65
2022-12-01T00:37:23.255Z,70.15
2022-12-01T00:38:26.664Z,70.05
2022-12-01T00:39:30.075Z,70.01
2022-12-01T00:40:32.232Z,69.83
2022-12-01T00:41:35.627Z,69.68
2022-12-01T00:42:38.030Z,69.78
2022-12-01T00:43:41.254Z,69.66
2022-12-01T00:44:43.311Z,69.81
2022-12-01T00:45:48.060Z,69.35
2022-12-01T00:46:50.268Z,69.21
2022-12-01T00:47:53.890Z,68.87
2022-12-01T00:48:56.351Z,68.48
2022-12-01T00:49:59.894Z,68.53
2022-12-01T00:51:02.096Z,68.07
2022-12-01T00:52:05.430Z,68.65
2022-12-01T00:53:07.707Z,68.71
2022-12-01T00:54:10.799Z,69.04
2022-12-01T00:55:12.944Z,69.33
2022-12-01T00:56:16.174Z,68.77
2022-12-01T00:57:18.256Z,68.59
2022-12-01T00:58:21.696Z,68.17
2022-12-01T00:59:24.012Z,68.51
2022-12-01T01:00:27.563Z,68.41
2022-12-01T01:01:31.336Z,68.64
2022-12-01T01:02:34.970Z,68.38
2022-12-01T01:03:37.212Z,68.34
2022-12-01T01:04:40.572Z,68.47
2022-12-01T01:05:43.957Z,68.75
2022-12-01T01:06:47.607Z,68.77
2022-12-01T01:07:49.756Z,68.52
2022-12-01T01:08:53.422Z,68.55
2022-12-01T01:09:56.799Z,68.75
2022-12-01T01:11:00.925Z,68.98
2022-12-01T01:12:04.297Z,69.40
2022-12-01T01:13:06.901Z,69.66
2022-12-01T01:14:10.532Z,69.94
2022-12-01T01:15:12.808Z,69.21
2022-12-01T01:16:17.987Z,68.45
2022-12-01T01:17:22.006Z,68.40
2022-12-01T01:18:25.926Z,68.75
2022-12-01T01:19:29.034Z,68.83
2022-12-01T01:20:31.429Z,68.35
2022-12-01T01:21:35.066Z,68.56
2022-12-01T01:22:37.259Z,68.22
2022-12-01T01:23:40.671Z,69.17
2022-12-01T01:24:42.920Z,68.75
2022-12-01T01:25:46.050Z,69.32
2022-12-01T01:26:48.157Z,68.81
2022-12-01T01:27:51.725Z,68.58
2022-12-01T01:28:55.987Z,68.55
2022-12-01T01:29:59.470Z,68.67
2022-12-01T01:31:06.505Z,68.92
2022-12-01T01:32:09.794Z,68.44
2022-12-01T01:33:13.315Z,68.34
2022-12-01T01:34:16.737Z,69.17
2022-12-01T01:35:18.838Z,68.96
2022-12-01T01:36:22.048Z,68.63
2022-12-01T01:37:24.173Z,69.42
2022-12-01T01:38:27.542Z,68.79
2022-12-01T01:39:30.193Z,68.60
2022-12-01T01:40:33.591Z,68.55
2022-12-01T01:41:35.784Z,68.59
2022-12-01T01:42:38.988Z,67.97
2022-12-01T01:43:46.220Z,67.86
2022-12-01T01:44:53.622Z,68.25
2022-12-01T01:45:55.784Z,67.72
2022-12-01T01:46:59.211Z,68.09
2022-12-01T01:48:01.488Z,68.11
2022-12-01T01:49:09.087Z,68.39
2022-12-01T01:50:13.358Z,68.57
2022-12-01T01:51:18.658Z,68.18
2022-12-01T01:52:23.607Z,68.27
2022-12-01T01:53:26.074Z,68.06
2022-12-01T01:54:34.987Z,67.51
2022-12-01T01:55:37.183Z,66.89
2022-12-01T01:56:40.366Z,67.28
2022-12-01T01:57:43.674Z,66.86
2022-12-01T01:58:47.319Z,67.05
2022-12-01T01:59:53.747Z,66.56
2022-12-01T02:00:57.270Z,66.61
2022-12-01T02:02:06.685Z,66.62
2022-12-01T02:03:13.951Z,66.04
2022-12-01T02:04:19.080Z,66.13
2022-12-01T02:05:25.227Z,66.20
2022-12-01T02:06:27.324Z,66.60
2022-12-01T02:07:30.530Z,66.50
2022-12-01T02:08:36.111Z,66.54
2022-12-01T02:09:39.258Z,67.13
2022-12-01T02:10:59.950Z,66.52
2022-12-01T02:12:13.894Z,66.50
2022-12-01T02:13:25.484Z,66.23
2022-12-01T02:14:42.707Z,66.20
2022-12-01T02:15:53.295Z,66.31
2022-12-01T02:17:01.955Z,66.38
2022-12-01T02:18:20.829Z,66.63
2022-12-01T02:19:45.263Z,66.64
2022-12-01T02:21:09.157Z,66.70
2022-12-01T02:22:24.995Z,66.46
2022-12-01T02:23:50.254Z,66.22
2022-12-01T02:25:19.624Z,66.61
2022-12-01T02:26:39.612Z,66.57
2022-12-01T02:28:10.026Z,67.57
2022-12-01T02:30:00.513Z,67.59
2022-12-01T02:31:12.679Z,66.80
2022-12-01T02:32:21.936Z,66.83
2022-12-01T02:33:30.633Z,66.81
2022-12-01T02:34:43.576Z,67.08
2022-12-01T02:35:51.701Z,67.56
2022-12-01T02:36:58.688Z,67.28
2022-12-01T02:38:11.344Z,67.14
2022-12-01T02:39:19.213Z,67.29
2022-12-01T02:40:27.844Z,66.83
2022-12-01T02:41:35.572Z,66.97
2022-12-01T02:42:49.905Z,66.41
2022-12-01T02:43:58.540Z,66.41
2022-12-01T02:45:03.845Z,66.39
2022-12-01T02:46:13.912Z,66.24
2022-12-01T02:47:19.073Z,66.95
2022-12-01T02:48:27.167Z,66.22
2022-12-01T02:49:34.888Z,66.97
2022-12-01T02:50:40.780Z,66.39
2022-12-01T02:51:46.206Z,66.70
2022-12-01T02:52:48.670Z,67.18
2022-12-01T02:53:52.595Z,67.51
2022-12-01T02:54:56.528Z,67.26
2022-12-01T02:56:01.041Z,67.25
2022-12-01T02:57:03.299Z,67.81
2022-12-01T02:58:15.410Z,67.49
2022-12-01T02:59:18.532Z,67.94
2022-12-01T03:00:20.796Z,67.40
2022-12-01T03:01:52.636Z,67.83
2022-12-01T03:03:14.120Z,67.67
2022-12-01T03:04:37.001Z,67.36
2022-12-01T03:05:45.166Z,67.67
2022-12-01T03:06:58.785Z,67.30
2022-12-01T03:08:13.752Z,67.18
2022-12-01T03:09:27.784Z,67.10
2022-12-01T03:10:38.352Z,67.16
2022-12-01T03:11:48.038Z,66.75
2022-12-01T03:13:02.148Z,67.47
2022-12-01T03:14:18.307Z,67.16
2022-12-01T03:15:31.156Z,67.15
2022-12-01T03:16:44.247Z,66.82
2022-12-01T03:17:54.174Z,66.58
2022-12-01T03:19:00.867Z,66.49
2022-12-01T03:20:11.825Z,67.27
2022-12-01T03:21:22.838Z,66.96
2022-12-01T03:22:29.035Z,66.70
2022-12-01T03:23:36.809Z,66.87
2022-12-01T03:24:41.293Z,66.44
2022-12-01T03:25:49.741Z,65.56
2022-12-01T03:26:57.063Z,65.44
2022-12-01T03:29:30.772Z,64.99
2022-12-01T03:30:35.727Z,65.08
2022-12-01T03:31:44.555Z,64.93
2022-12-01T03:32:53.164Z,64.89
2022-12-01T03:34:02.076Z,65.45
2022-12-01T03:35:09.118Z,65.26
2022-12-01T03:36:17.494Z,65.40
2022-12-01T03:37:24.897Z,65.81
2022-12-01T03:38:31.937Z,65.13
2022-12-01T03:39:36.188Z,65.55
2022-12-01T03:40:41.457Z,64.23
2022-12-01T03:41:56.891Z,64.23
2022-12-01T03:43:04.269Z,62.72
2022-12-01T03:44:12.567Z,62.82
2022-12-01T03:45:19.758Z,63.07
2022-12-01T03:46:30.814Z,62.62
2022-12-01T03:47:35.869Z,62.19
2022-12-01T03:48:41.915Z,62.06
2022-12-01T03:49:45.296Z,62.08
2022-12-01T03:50:58.504Z,61.57
2022-12-01T03:52:11.759Z,60.88
2022-12-01T03:53:21.887Z,61.60
2022-12-01T03:54:38.340Z,61.26
2022-12-01T03:55:44.090Z,61.55
2022-12-01T03:56:53.516Z,61.11
2022-12-01T03:58:03.172Z,61.56
2022-12-01T03:59:09.288Z,60.63
2022-12-01T04:00:14.902Z,60.13
2022-12-01T04:01:17.207Z,60.04
2022-12-01T04:02:20.636Z,60.75
2022-12-01T04:03:25.503Z,60.36
2022-12-01T04:04:30.214Z,60.86
2022-12-01T04:05:34.782Z,60.91
2022-12-01T04:06:38.008Z,61.51
2022-12-01T04:07:40.702Z,62.23
2022-12-01T04:08:43.947Z,60.67
2022-12-01T04:09:46.256Z,60.58
2022-12-01T04:10:49.603Z,60.52
2022-12-01T04:12:10.635Z,60.72
2022-12-01T04:13:22.337Z,60.55
2022-12-01T04:14:26.372Z,61.03
2022-12-01T04:15:28.865Z,60.49
2022-12-01T04:16:32.309Z,61.02
2022-12-01T04:17:35.072Z,60.63
2022-12-01T04:18:38.262Z,59.97
2022-12-01T04:19:41.960Z,60.02
2022-12-01T04:20:47.013Z,60.11
2022-12-01T04:21:49.137Z,59.86
2022-12-01T04:22:52.317Z,60.12
2022-12-01T04:24:00.389Z,59.68
2022-12-01T04:25:04.031Z,59.43
2022-12-01T04:26:08.111Z,59.65
2022-12-01T04:27:14.627Z,59.74
2022-12-01T04:28:16.857Z,60.37
2022-12-01T04:29:20.321Z,59.86
2022-12-01T04:30:22.507Z,59.53
2022-12-01T04:31:25.813Z,59.70
2022-12-01T04:32:28.094Z,59.50
2022-12-01T04:33:31.329Z,59.92
2022-12-01T04:34:33.604Z,59.82
2022-12-01T04:35:38.675Z,60.64
2022-12-01T04:36:40.802Z,60.59
2022-12-01T04:37:43.982Z,60.75
2022-12-01T04:38:46.096Z,61.37
2022-12-01T04:39:50.713Z,59.92
2022-12-01T04:40:53.210Z,60.37
2022-12-01T04:41:56.793Z,60.27
2022-12-01T04:42:58.859Z,60.45
2022-12-01T04:44:02.654Z,60.16
2022-12-01T04:45:05.205Z,60.30
2022-12-01T04:46:09.446Z,60.40
2022-12-01T04:47:12.780Z,60.61
2022-12-01T04:48:14.939Z,60.65
2022-12-01T04:49:18.104Z,60.36
2022-12-01T04:50:20.255Z,60.65
2022-12-01T04:51:25.076Z,60.07
2022-12-01T04:52:32.032Z,59.98
2022-12-01T04:53:38.485Z,60.41
2022-12-01T04:54:41.168Z,60.47
2022-12-01T04:55:44.433Z,61.18
2022-12-01T04:56:46.622Z,60.68
2022-12-01T04:57:50.026Z,60.68
2022-12-01T04:58:52.253Z,60.07
2022-12-01T04:59:55.526Z,60.20
2022-12-01T05:01:02.248Z,60.62
2022-12-01T05:02:05.828Z,60.68
2022-12-01T05:03:13.523Z,60.18
2022-12-01T05:04:18.235Z,60.52
2022-12-01T05:05:20.506Z,61.17
2022-12-01T05:06:26.715Z,61.10
2022-12-01T05:07:28.947Z,60.67
2022-12-01T05:08:32.636Z,60.55
2022-12-01T05:09:35.918Z,61.41
2022-12-01T05:10:38.658Z,60.99
2022-12-01T05:11:41.756Z,60.90
2022-12-01T05:12:43.955Z,61.21
2022-12-01T05:13:49.888Z,61.05
2022-12-01T05:14:52.164Z,61.32
2022-12-01T05:15:55.437Z,60.80
2022-12-01T05:16:58.348Z,60.17
2022-12-01T05:18:01.769Z,59.69
2022-12-01T05:19:35.796Z,59.92
2022-12-01T05:20:56.208Z,60.37
2022-12-01T05:22:00.759Z,61.06
2022-12-01T05:23:05.761Z,61.38
2022-12-01T05:24:10.885Z,61.20
2022-12-01T05:25:13.020Z,61.44
2022-12-01T05:26:16.341Z,61.05
2022-12-01T05:27:18.609Z,59.73
2022-12-01T05:28:22.977Z,59.43
2022-12-01T05:29:26.123Z,59.68
2022-12-01T05:30:28.956Z,59.81
2022-12-01T05:31:32.877Z,60.10
2022-12-01T05:32:35.008Z,59.75
2022-12-01T05:33:38.198Z,59.98
2022-12-01T05:34:40.394Z,60.30
2022-12-01T05:35:44.071Z,59.90
2022-12-01T05:36:46.427Z,59.18
2022-12-01T05:37:50.990Z,59.44
2022-12-01T05:38:54.682Z,60.00
2022-12-01T05:39:56.732Z,59.25
2022-12-01T05:40:59.856Z,60.16
2022-12-01T05:42:01.967Z,59.37
2022-12-01T05:43:05.914Z,59.80
2022-12-01T05:44:08.247Z,59.29
2022-12-01T05:45:12.568Z,59.64
2022-12-01T05:46:15.113Z,59.60
2022-12-01T05:47:18.339Z,60.01
2022-12-01T05:48:20.689Z,59.49
2022-12-01T05:49:24.135Z,59.94
2022-12-01T05:50:27.836Z,59.96
2022-12-01T05:51:31.015Z,59.66
2022-12-01T05:52:34.539Z,59.79
2022-12-01T05:53:39.923Z,60.03
2022-12-01T05:54:42.337Z,60.53
2022-12-01T05:55:45.927Z,59.33
2022-12-01T05:56:48.069Z,59.77
2022-12-01T05:57:51.148Z,58.81
2022-12-01T05:58:54.397Z,58.46
2022-12-01T05:59:57.077Z,59.38
2022-12-01T06:01:00.196Z,58.72
2022-12-01T06:02:02.668Z,58.60
2022-12-01T06:03:06.852Z,58.31
2022-12-01T06:04:09.031Z,58.38
2022-12-01T06:05:12.367Z,58.63
2022-12-01T06:06:15.730Z,59.72
2022-12-01T06:07:17.847Z,60.52
2022-12-01T06:08:21.144Z,60.36
2022-12-01T06:09:25.260Z,60.06
2022-12-01T06:10:28.423Z,58.24
2022-12-01T06:11:30.614Z,59.49
2022-12-01T06:12:33.837Z,59.72
2022-12-01T06:13:37.124Z,58.90
2022-12-01T06:14:39.325Z,59.25
2022-12-01T06:15:42.945Z,58.18
2022-12-01T06:16:45.144Z,59.81
2022-12-01T06:17:48.621Z,58.68
2022-12-01T06:18:50.775Z,57.24
2022-12-01T06:19:54.556Z,59.47
2022-12-01T06:20:57.087Z,55.84
2022-12-01T06:22:00.306Z,56.51
2022-12-01T06:23:03.575Z,56.35
2022-12-01T06:24:06.414Z,55.09
2022-12-01T06:25:11.895Z,55.21
2022-12-01T06:26:14.165Z,55.47
2022-12-01T06:27:17.401Z,54.63
2022-12-01T06:28:19.868Z,54.79
2022-12-01T06:29:22.989Z,54.03
2022-12-01T06:30:25.820Z,55.84
2022-12-01T06:31:29.370Z,54.08
2022-12-01T06:32:31.994Z,53.66
2022-12-01T06:33:35.394Z,53.31
2022-12-01T06:34:37.614Z,53.36
2022-12-01T06:35:40.897Z,53.29
2022-12-01T06:36:42.980Z,53.04
2022-12-01T06:37:46.308Z,52.81
2022-12-01T06:38:48.395Z,53.54
2022-12-01T06:39:51.926Z,53.51
2022-12-01T06:40:56.607Z,52.85
2022-12-01T06:41:58.950Z,52.88
2022-12-01T06:43:03.155Z,52.88
2022-12-01T06:44:06.193Z,52.36
2022-12-01T06:45:11.151Z,53.11
2022-12-01T06:46:13.394Z,52.77
2022-12-01T06:47:17.000Z,52.51
2022-12-01T06:48:19.444Z,52.70
2022-12-01T06:49:23.226Z,52.73
2022-12-01T06:50:25.676Z,53.07
2022-12-01T06:51:30.828Z,53.57
2022-12-01T06:52:32.972Z,52.21
2022-12-01T06:53:36.795Z,52.72
2022-12-01T06:54:40.265Z,52.89
2022-12-01T06:55:42.656Z,52.66
2022-12-01T06:56:47.563Z,52.51
2022-12-01T06:57:49.916Z,51.98
2022-12-01T06:58:54.205Z,51.91
2022-12-01T06:59:56.963Z,52.12
2022-12-01T07:01:00.636Z,51.94
2022-12-01T07:02:04.224Z,51.20
2022-12-01T07:03:06.675Z,51.58
2022-12-01T07:04:09.969Z,51.56
2022-12-01T07:05:12.248Z,52.16
2022-12-01T07:06:16.635Z,51.57
2022-12-01T07:07:18.891Z,51.74
2022-12-01T07:08:22.175Z,50.88
2022-12-01T07:09:24.371Z,50.94
2022-12-01T07:10:28.507Z,51.19
2022-12-01T07:11:32.363Z,51.00
2022-12-01T07:12:37.375Z,51.50
2022-12-01T07:13:40.876Z,51.11
2022-12-01T07:14:44.068Z,50.63
2022-12-01T07:15:46.594Z,50.63
2022-12-01T07:16:50.049Z,50.59
2022-12-01T07:17:53.605Z,51.19
2022-12-01T07:18:56.075Z,50.76
2022-12-01T07:19:59.316Z,50.69
2022-12-01T07:21:02.391Z,50.44
2022-12-01T07:22:05.578Z,50.71
2022-12-01T07:23:07.756Z,50.62
2022-12-01T07:24:12.666Z,50.06
2022-12-01T07:25:14.992Z,50.37
2022-12-01T07:26:19.783Z,50.41
2022-12-01T07:27:21.892Z,50.97
2022-12-01T07:28:26.637Z,50.89
2022-12-01T07:29:29.921Z,50.13
2022-12-01T07:30:32.088Z,50.15
2022-12-01T07:31:35.416Z,51.13
2022-12-01T07:32:38.596Z,50.95
2022-12-01T07:33:40.875Z,50.25
2022-12-01T07:34:43.963Z,50.83
2022-12-01T07:35:46.158Z,50.23
2022-12-01T07:36:49.294Z,49.65
2022-12-01T07:37:55.390Z,50.16
2022-12-01T07:38:58.628Z,50.11
2022-12-01T07:40:02.431Z,49.47
2022-12-01T07:41:06.013Z,49.51
2022-12-01T07:42:09.201Z,49.90
2022-12-01T07:43:11.305Z,49.50
2022-12-01T07:44:16.021Z,49.74
2022-12-01T07:45:19.245Z,49.75
2022-12-01T07:46:24.629Z,49.61
2022-12-01T07:47:28.095Z,49.99
2022-12-01T07:48:30.600Z,49.42
2022-12-01T07:49:34.384Z,49.91
2022-12-01T07:50:36.796Z,49.33
2022-12-01T07:51:39.996Z,48.79
2022-12-01T07:52:42.192Z,49.20
2022-12-01T07:53:46.073Z,49.55
2022-12-01T07:54:48.241Z,48.92
2022-12-01T07:55:51.654Z,49.42
2022-12-01T07:56:54.757Z,49.74
2022-12-01T07:57:59.791Z,49.33
2022-12-01T07:59:03.078Z,54.01
2022-12-01T08:00:09.388Z,52.04
2022-12-01T08:01:15.088Z,50.71
2022-12-01T08:02:18.560Z,48.56
2022-12-01T08:03:21.304Z,49.40
2022-12-01T08:04:24.736Z,49.15
2022-12-01T08:05:26.923Z,47.67
2022-12-01T08:06:30.113Z,47.64
2022-12-01T08:07:33.415Z,47.26
2022-12-01T08:08:37.163Z,47.00
2022-12-01T08:09:40.430Z,47.31
2022-12-01T08:10:42.513Z,46.47
2022-12-01T08:11:45.660Z,46.70
2022-12-01T08:12:49.197Z,46.54
2022-12-01T08:13:51.905Z,46.47
2022-12-01T08:14:55.392Z,45.07
2022-12-01T08:15:59.423Z,46.24
2022-12-01T08:17:02.722Z,45.92
2022-12-01T08:18:06.094Z,45.15
2022-12-01T08:19:11.732Z,45.25
2022-12-01T08:20:14.220Z,45.49
2022-12-01T08:21:19.184Z,45.27
2022-12-01T08:22:21.556Z,45.33
2022-12-01T08:23:25.744Z,45.13
2022-12-01T08:24:28.925Z,45.21
2022-12-01T08:25:31.065Z,45.27
2022-12-01T08:26:34.469Z,44.88
2022-12-01T08:27:36.795Z,45.68
2022-12-01T08:28:41.014Z,45.54
2022-12-01T08:29:44.150Z,44.69
2022-12-01T08:30:46.595Z,45.00
2022-12-01T08:31:51.615Z,45.74
2022-12-01T08:32:54.720Z,45.25
2022-12-01T08:33:58.727Z,45.44
2022-12-01T08:35:01.084Z,45.59
2022-12-01T08:36:04.581Z,45.48
2022-12-01T08:37:06.735Z,45.68
2022-12-01T08:38:11.442Z,46.08
2022-12-01T08:39:15.223Z,45.97
2022-12-01T08:40:17.426Z,46.23
2022-12-01T08:41:21.071Z,45.94
2022-12-01T08:42:23.355Z,45.69
2022-12-01T08:43:55.855Z,43.79
2022-12-01T08:44:50.215Z,45.91
2022-12-01T08:45:52.706Z,44.96
2022-12-01T08:46:57.386Z,46.04
2022-12-01T08:48:00.134Z,46.27
2022-12-01T08:49:03.871Z,45.15
2022-12-01T08:50:07.204Z,45.36
2022-12-01T08:51:12.937Z,45.53
2022-12-01T08:52:16.149Z,45.23
2022-12-01T08:53:18.342Z,45.74
2022-12-01T08:54:22.109Z,45.93
2022-12-01T08:55:24.411Z,45.59
2022-12-01T08:56:29.594Z,46.14
2022-12-01T08:57:32.138Z,45.53
2022-12-01T08:58:36.014Z,46.22
2022-12-01T08:59:39.136Z,45.73
2022-12-01T09:00:42.029Z,45.44
2022-12-01T09:01:53.385Z,46.73
2022-12-01T09:02:57.114Z,45.62
2022-12-01T09:04:08.772Z,45.53
2022-12-01T09:05:11.485Z,46.19
2022-12-01T09:06:17.092Z,45.89
2022-12-01T09:07:26.024Z,45.86
2022-12-01T09:08:31.799Z,45.78
2022-12-01T09:09:37.207Z,45.32
2022-12-01T09:10:39.558Z,46.93
2022-12-01T09:11:44.060Z,45.12
2022-12-01T09:12:47.236Z,46.60
2022-12-01T09:13:54.434Z,46.21
2022-12-01T09:14:58.268Z,46.98
2022-12-01T09:16:03.807Z,47.08
2022-12-01T09:17:07.549Z,47.13
2022-12-01T09:18:11.267Z,46.96
2022-12-01T09:19:20.600Z,46.90
2022-12-01T09:20:27.365Z,45.85
2022-12-01T09:21:32.291Z,44.56
2022-12-01T09:22:35.747Z,45.93
2022-12-01T09:23:37.908Z,45.72
2022-12-01T09:24:41.001Z,45.41
2022-12-01T09:25:43.193Z,45.65
2022-12-01T09:26:46.632Z,45.58
2022-12-01T09:27:49.802Z,46.67
2022-12-01T09:28:55.696Z,46.26
2022-12-01T09:29:59.017Z,45.82
2022-12-01T09:31:05.252Z,44.37
2022-12-01T09:32:08.407Z,45.44
2022-12-01T09:33:12.648Z,46.18
2022-12-01T09:34:17.539Z,45.48
2022-12-01T09:35:23.362Z,45.32
2022-12-01T09:36:27.997Z,44.79
2022-12-01T09:37:31.219Z,45.07
2022-12-01T09:38:35.017Z,44.18
2022-12-01T09:39:38.598Z,45.25
2022-12-01T09:40:43.733Z,44.77
2022-12-01T09:41:51.187Z,45.17
2022-12-01T09:42:54.692Z,45.82
2022-12-01T09:44:06.319Z,44.41
2022-12-01T09:45:22.592Z,44.63
2022-12-01T09:46:31.250Z,44.76
2022-12-01T09:47:37.068Z,44.18
2022-12-01T09:48:44.249Z,44.00
2022-12-01T09:49:58.684Z,45.01
2022-12-01T09:51:01.306Z,44.97
2022-12-01T09:52:04.596Z,45.69
2022-12-01T09:53:10.261Z,44.41
2022-12-01T09:54:14.813Z,45.20
2022-12-01T09:55:20.984Z,46.28
2022-12-01T09:56:25.992Z,44.88
2022-12-01T09:57:33.816Z,44.30
2022-12-01T09:58:37.826Z,44.54
2022-12-01T09:59:43.584Z,45.83
2022-12-01T10:00:49.307Z,45.89
2022-12-01T10:01:55.237Z,45.12
2022-12-01T10:03:05.992Z,45.45
2022-12-01T10:04:16.011Z,44.66
2022-12-01T10:05:22.248Z,44.84
2022-12-01T10:06:33.515Z,44.92
2022-12-01T10:07:41.139Z,45.41
2022-12-01T10:08:51.075Z,44.39
2022-12-01T10:09:57.355Z,43.46
2022-12-01T10:11:05.986Z,44.45
2022-12-01T10:12:19.895Z,42.97
2022-12-01T10:13:26.261Z,43.79
2022-12-01T10:14:34.508Z,42.68
2022-12-01T10:15:44.343Z,43.42
2022-12-01T10:16:55.104Z,42.59
2022-12-01T10:18:18.778Z,42.54
2022-12-01T10:19:33.056Z,42.06
2022-12-01T10:20:46.688Z,42.68
2022-12-01T10:22:08.488Z,42.18
2022-12-01T10:23:31.961Z,42.54
2022-12-01T10:24:47.882Z,42.13
2022-12-01T10:25:58.081Z,42.72
2022-12-01T10:27:13.737Z,42.29
2022-12-01T10:28:37.120Z,42.74
2022-12-01T10:29:48.304Z,42.92
2022-12-01T10:30:53.782Z,43.25
2022-12-01T10:31:58.324Z,42.67
2022-12-01T10:33:06.103Z,42.42
2022-12-01T10:34:17.139Z,42.67
2022-12-01T10:35:23.803Z,43.21
2022-12-01T10:36:27.145Z,43.27
2022-12-01T10:37:32.156Z,43.18
2022-12-01T10:38:36.809Z,43.35
2022-12-01T10:39:43.248Z,44.04
2022-12-01T10:40:46.379Z,43.93
2022-12-01T10:41:50.974Z,44.42
2022-12-01T10:42:54.352Z,44.65
2022-12-01T10:44:00.948Z,44.92
2022-12-01T10:45:08.827Z,44.51
2022-12-01T10:46:23.743Z,44.71
2022-12-01T10:47:28.267Z,44.67
2022-12-01T10:48:30.796Z,45.02
2022-12-01T10:49:38.711Z,45.24
2022-12-01T10:50:43.609Z,44.44
2022-12-01T10:51:53.136Z,45.04
2022-12-01T10:52:56.388Z,44.99
2022-12-01T10:54:01.115Z,45.43
2022-12-01T10:55:07.697Z,45.58
2022-12-01T10:56:15.195Z,45.43
2022-12-01T10:57:18.723Z,45.00
2022-12-01T10:58:20.973Z,44.97
2022-12-01T10:59:29.784Z,44.99
2022-12-01T11:00:59.731Z,45.09
2022-12-01T11:02:02.273Z,45.10
2022-12-01T11:03:06.606Z,45.02
2022-12-01T11:04:29.259Z,44.55
2022-12-01T11:05:38.967Z,43.97
2022-12-01T11:06:49.770Z,44.35
2022-12-01T11:07:52.862Z,42.71
2022-12-01T11:09:00.448Z,42.74
2022-12-01T11:10:17.341Z,41.05
2022-12-01T11:11:30.354Z,40.25
2022-12-01T11:12:35.374Z,41.19
2022-12-01T11:13:38.730Z,40.99
2022-12-01T11:14:46.070Z,42.21
2022-12-01T11:15:53.204Z,42.80
2022-12-01T11:16:56.606Z,43.02
2022-12-01T11:18:01.770Z,42.92
2022-12-01T11:19:27.583Z,43.15
2022-12-01T11:20:35.483Z,42.94
2022-12-01T11:21:47.998Z,43.02
2022-12-01T11:22:51.208Z,43.05
2022-12-01T11:23:55.895Z,43.86
2022-12-01T11:25:01.794Z,43.57
2022-12-01T11:26:14.147Z,42.15
2022-12-01T11:27:20.764Z,42.38
2022-12-01T11:28:24.220Z,43.62
2022-12-01T11:29:35.572Z,42.52
2022-12-01T11:30:38.967Z,43.94
2022-12-01T11:31:45.174Z,43.50
2022-12-01T11:32:54.607Z,43.27
2022-12-01T11:33:57.032Z,43.32
2022-12-01T11:35:03.903Z,42.28
2022-12-01T11:36:14.619Z,43.06
2022-12-01T11:37:23.032Z,43.01
2022-12-01T11:38:34.609Z,43.35
2022-12-01T11:39:40.713Z,43.41
2022-12-01T11:40:48.130Z,42.88
2022-12-01T11:41:57.084Z,43.63
2022-12-01T11:43:02.361Z,43.99
2022-12-01T11:44:22.449Z,43.99
2022-12-01T11:45:33.881Z,45.70
2022-12-01T11:46:50.091Z,44.64
2022-12-01T11:48:05.736Z,44.21
2022-12-01T11:49:18.533Z,45.13
2022-12-01T11:50:26.137Z,45.41
2022-12-01T11:51:32.032Z,44.40
2022-12-01T11:52:47.370Z,44.42
2022-12-01T11:53:51.163Z,45.14
2022-12-01T11:55:09.537Z,44.42
2022-12-01T11:56:23.404Z,44.37
2022-12-01T11:57:35.257Z,45.68
2022-12-01T11:58:38.993Z,44.00
2022-12-01T11:59:41.241Z,43.87
2022-12-01T12:00:49.142Z,44.13
2022-12-01T12:02:08.031Z,43.83
2022-12-01T12:03:22.344Z,43.18
2022-12-01T12:04:38.572Z,43.35
2022-12-01T12:05:57.619Z,43.16
2022-12-01T12:07:17.675Z,43.58
2022-12-01T12:08:36.971Z,43.45
2022-12-01T12:09:55.341Z,42.94
2022-12-01T12:11:08.810Z,43.14
2022-12-01T12:12:26.959Z,43.89
2022-12-01T12:13:46.497Z,43.03
2022-12-01T12:15:01.047Z,42.45
2022-12-01T12:16:16.099Z,42.05
2022-12-01T12:17:48.901Z,40.79
2022-12-01T12:19:06.111Z,40.46
2022-12-01T12:20:38.704Z,40.12
2022-12-01T12:21:49.972Z,40.25
2022-12-01T12:23:08.450Z,39.98
2022-12-01T12:24:37.332Z,39.35
2022-12-01T12:25:55.493Z,39.13
2022-12-01T12:27:07.386Z,40.32
2022-12-01T12:28:28.547Z,39.90
2022-12-01T12:29:48.554Z,39.34
2022-12-01T12:30:59.056Z,39.35
2022-12-01T12:32:19.510Z,38.91
2022-12-01T12:33:51.173Z,40.10
2022-12-01T12:35:04.558Z,40.24
2022-12-01T12:36:17.588Z,38.82
2022-12-01T12:37:27.898Z,38.98
2022-12-01T12:38:45.724Z,38.85
2022-12-01T12:40:39.422Z,39.61
2022-12-01T12:41:47.242Z,38.34
2022-12-01T12:43:03.935Z,38.11
2022-12-01T12:44:30.018Z,37.77
2022-12-01T12:45:50.795Z,38.79
2022-12-01T12:47:05.150Z,39.74
2022-12-01T12:48:21.198Z,39.26
2022-12-01T12:49:34.120Z,39.58
2022-12-01T12:50:44.955Z,40.15
2022-12-01T12:51:53.002Z,40.78
2022-12-01T12:52:59.651Z,40.13
2022-12-01T12:54:16.625Z,40.41
2022-12-01T12:55:27.932Z,41.03
2022-12-01T12:56:33.753Z,41.30
2022-12-01T12:57:41.065Z,40.80
2022-12-01T12:58:56.527Z,39.95
2022-12-01T13:00:03.563Z,41.60
2022-12-01T13:01:17.141Z,39.79
2022-12-01T13:02:27.158Z,40.06
2022-12-01T13:03:39.909Z,38.60
2022-12-01T13:04:52.935Z,39.20
2022-12-01T13:06:02.790Z,38.61
2022-12-01T13:07:10.347Z,38.72
2022-12-01T13:08:19.155Z,39.77
2022-12-01T13:09:29.157Z,39.23
2022-12-01T13:10:42.156Z,39.23
2022-12-01T13:11:50.919Z,39.83
2022-12-01T13:12:58.265Z,39.00
2022-12-01T13:14:07.315Z,39.69
2022-12-01T13:15:17.183Z,39.08
2022-12-01T13:16:29.356Z,39.44
2022-12-01T13:17:37.842Z,39.28
2022-12-01T13:18:45.568Z,40.26
2022-12-01T13:19:48.272Z,40.39
2022-12-01T13:20:53.693Z,40.03
2022-12-01T13:21:57.997Z,38.80
2022-12-01T13:23:03.904Z,39.39
2022-12-01T13:24:09.292Z,38.97
2022-12-01T13:25:14.832Z,39.23
2022-12-01T13:26:20.569Z,39.97
2022-12-01T13:27:27.042Z,39.24
2022-12-01T13:28:36.571Z,39.06
2022-12-01T13:29:45.769Z,39.44
2022-12-01T13:31:07.522Z,39.02
2022-12-01T13:32:29.040Z,38.83
2022-12-01T13:33:33.624Z,39.54
2022-12-01T13:34:40.516Z,38.92
2022-12-01T13:35:43.724Z,39.43
2022-12-01T13:36:50.225Z,38.54
2022-12-01T13:37:54.876Z,39.09
2022-12-01T13:38:59.813Z,39.18
2022-12-01T13:40:13.576Z,38.58
2022-12-01T13:41:27.728Z,38.65
2022-12-01T13:42:34.345Z,38.56
2022-12-01T13:43:38.075Z,38.66
2022-12-01T13:44:44.117Z,38.16
2022-12-01T13:45:48.420Z,38.04
2022-12-01T13:46:54.384Z,38.22
2022-12-01T13:48:01.814Z,38.41
2022-12-01T13:49:06.174Z,38.44
2022-12-01T13:50:55.880Z,38.39
2022-12-01T13:52:29.282Z,39.44
2022-12-01T13:53:36.758Z,39.26
2022-12-01T13:54:39.901Z,38.89
2022-12-01T13:56:01.361Z,38.91
2022-12-01T13:57:12.128Z,39.33
2022-12-01T13:58:41.257Z,39.42
2022-12-01T14:00:04.252Z,39.03
2022-12-01T14:01:40.897Z,39.70
2022-12-01T14:02:44.712Z,39.83
2022-12-01T14:03:53.527Z,39.68
2022-12-01T14:04:56.872Z,40.07
2022-12-01T14:06:09.224Z,40.22
2022-12-01T14:07:34.785Z,41.08
2022-12-01T14:08:46.176Z,39.73
2022-12-01T14:09:52.421Z,39.79
2022-12-01T14:10:59.357Z,39.53
2022-12-01T14:12:04.032Z,39.55
2022-12-01T14:13:09.206Z,39.81
2022-12-01T14:14:21.218Z,40.20
2022-12-01T14:15:43.916Z,40.67
2022-12-01T14:16:48.895Z,40.22
2022-12-01T14:18:01.899Z,40.29
2022-12-01T14:19:05.150Z,40.77
2022-12-01T14:20:20.452Z,40.04
2022-12-01T14:21:44.839Z,40.29
2022-12-01T14:23:03.231Z,40.60